Weather at Springfield-Beckley Municipal Airport

Public forecast

Using degrees Fahrenheit for public forecast. Weather courtesy of forecast.io.

Current aviation weather report (METAR) for Springfield-Beckley Municipal Airport

Retrieved 2021/09/21 15:56 UTC (1 hour ago):

KSGH 211556Z AUTO 18008KT 8SM OVC007 21/ A3012 RMK AO2 RAB25E37 CIG 005V010 SLP196 P0000 T0206

Closest aviation forecast (TAF) to Springfield-Beckley Municipal Airport

Closest forecast is Wright-Patterson Air Force Base, 9.6 nm (17.8 km) W. Retrieved 2021/09/21 11:09 UTC (6 hours ago):

TAF KFFO 211100Z 2111/2217 16006KT 9999 VCSH FEW018 BKN040 OVC060 QNH3007INS TEMPO 2111/2115 6000 -SHRA BKN018 OVC040 BECMG 2117/2118 16012KT 9999 VCSH OVC018 QNH3003INS BECMG 2201/2202 18009KT 8000 -SHRA BKN015 OVC040 QNH2995INS TEMPO 2202/2206 VRB12G18KT 3200 TSRA BKN008 OVC012CB BECMG 2207/2208 35015G25KT 6000 -SHRA OVC008 510072 QNH2994INS BECMG 2210/2211 VRB06KT 4800 -SHRA OVC001 QNH2980INS TX24/2121Z TN14/2111Z